createdAt,value
2018-02-17T00:01:53.388Z,97019.00
2018-02-17T00:04:20.997Z,97014.76
2018-02-17T00:06:48.751Z,97023.35
2018-02-17T00:09:17.016Z,97025.49
2018-02-17T00:11:44.697Z,97024.36
2018-02-17T00:14:12.314Z,97028.09
2018-02-17T00:16:39.914Z,97021.09
2018-02-17T00:19:09.200Z,97034.67
2018-02-17T00:21:37.116Z,97033.96
2018-02-17T00:24:04.737Z,97032.62
2018-02-17T00:26:32.466Z,97030.18
2018-02-17T00:29:00.075Z,97029.47
2018-02-17T00:31:28.093Z,97029.13
2018-02-17T00:33:56.187Z,97037.28
2018-02-17T00:36:23.845Z,97032.23
2018-02-17T00:38:51.526Z,97032.73
2018-02-17T00:41:19.115Z,97032.28
2018-02-17T00:43:46.731Z,97028.23
2018-02-17T00:46:14.352Z,97041.02
2018-02-17T00:48:42.034Z,97033.45
2018-02-17T00:51:09.688Z,97027.31
2018-02-17T00:53:37.470Z,97016.44
2018-02-17T00:56:05.278Z,97017.09
2018-02-17T00:58:33.280Z,97017.61
2018-02-17T01:01:00.939Z,97015.17
2018-02-17T01:03:29.014Z,97010.25
2018-02-17T01:05:56.608Z,97002.44
2018-02-17T01:08:24.238Z,97003.83
2018-02-17T01:10:52.306Z,97002.31
2018-02-17T01:13:19.933Z,96997.06
2018-02-17T01:15:47.540Z,96999.58
2018-02-17T01:18:15.115Z,96995.92
2018-02-17T01:20:42.730Z,96990.33
2018-02-17T01:23:10.478Z,96983.55
2018-02-17T01:25:38.113Z,96974.58
2018-02-17T01:28:05.779Z,96983.14
2018-02-17T01:30:33.432Z,96991.64
2018-02-17T01:33:01.213Z,96980.89
2018-02-17T01:35:29.217Z,96973.94
2018-02-17T01:37:57.062Z,96969.52
2018-02-17T01:40:24.740Z,96964.17
2018-02-17T01:42:52.337Z,96965.36
2018-02-17T01:45:20.028Z,96968.56
2018-02-17T01:47:47.623Z,96966.40
2018-02-17T01:50:27.184Z,96950.67
2018-02-17T01:52:54.846Z,96952.53
2018-02-17T01:55:23.878Z,96942.78
2018-02-17T01:57:51.602Z,96944.59
2018-02-17T02:00:19.306Z,96943.16
2018-02-17T02:02:46.950Z,96943.83
2018-02-17T02:05:15.136Z,96939.06
2018-02-17T02:07:42.729Z,96931.44
2018-02-17T02:10:10.318Z,96932.95
2018-02-17T02:12:37.949Z,96926.81
2018-02-17T02:15:06.471Z,96926.88
2018-02-17T02:17:34.115Z,96926.12
2018-02-17T02:20:01.828Z,96927.06
2018-02-17T02:22:29.519Z,96924.78
2018-02-17T02:24:57.118Z,96924.91
2018-02-17T02:27:24.747Z,96921.79
2018-02-17T02:29:52.344Z,96917.70
2018-02-17T02:32:19.933Z,96915.95
2018-02-17T02:34:47.587Z,96917.41
2018-02-17T02:37:15.372Z,96914.84
2018-02-17T02:39:43.197Z,96919.62
2018-02-17T02:42:10.917Z,96919.62
2018-02-17T02:44:38.751Z,96924.19
2018-02-17T02:47:06.581Z,96910.31
2018-02-17T02:49:34.194Z,96914.05
2018-02-17T02:52:01.775Z,96906.53
2018-02-17T02:54:29.368Z,96901.42
2018-02-17T02:56:56.947Z,96903.06
2018-02-17T02:59:24.651Z,96902.15
2018-02-17T03:01:52.235Z,96890.59
2018-02-17T03:04:19.935Z,96890.34
2018-02-17T03:06:47.602Z,96883.59
2018-02-17T03:09:15.344Z,96886.63
2018-02-17T03:11:43.398Z,96885.38
2018-02-17T03:14:11.378Z,96885.74
2018-02-17T03:16:39.775Z,96891.16
2018-02-17T03:19:07.397Z,96892.21
2018-02-17T03:21:35.058Z,96886.42
2018-02-17T03:24:03.799Z,96878.64
2018-02-17T03:26:34.137Z,96881.88
2018-02-17T03:29:01.753Z,96878.73
2018-02-17T03:31:29.523Z,96875.59
2018-02-17T03:33:57.144Z,96870.81
2018-02-17T03:36:24.764Z,96866.48
2018-02-17T03:38:52.366Z,96859.27
2018-02-17T03:41:20.069Z,96861.77
2018-02-17T03:43:47.674Z,96857.75
2018-02-17T03:46:15.462Z,96855.98
2018-02-17T03:48:43.060Z,96853.55
2018-02-17T03:53:43.352Z,96848.63
2018-02-17T03:56:10.951Z,96842.11
2018-02-17T03:58:39.032Z,96835.77
2018-02-17T04:01:06.664Z,96831.44
2018-02-17T04:03:34.307Z,96830.10
2018-02-17T04:06:01.965Z,96829.95
2018-02-17T04:08:29.605Z,96821.39
2018-02-17T04:10:57.210Z,96820.70
2018-02-17T04:13:25.619Z,96820.99
2018-02-17T04:15:53.229Z,96821.88
2018-02-17T04:18:20.870Z,96809.41
2018-02-17T04:20:48.483Z,96811.56
2018-02-17T04:23:16.089Z,96804.38
2018-02-17T04:25:43.679Z,96794.52
2018-02-17T04:28:11.318Z,96789.48
2018-02-17T04:30:38.987Z,96791.91
2018-02-17T04:33:07.276Z,96795.36
2018-02-17T04:35:34.982Z,96791.20
2018-02-17T04:38:02.627Z,96802.36
2018-02-17T04:40:36.504Z,96792.59
2018-02-17T04:46:22.915Z,96778.09
2018-02-17T04:48:53.943Z,96779.25
2018-02-17T04:54:34.677Z,96770.63
2018-02-17T04:57:18.289Z,96774.47
2018-02-17T04:59:49.782Z,96765.52
2018-02-17T05:02:19.129Z,96759.02
2018-02-17T05:07:53.179Z,96745.86
2018-02-17T05:10:20.922Z,96744.80
2018-02-17T05:12:48.513Z,96746.75
2018-02-17T05:15:16.641Z,96736.23
2018-02-17T05:17:49.699Z,96734.50
2018-02-17T05:20:29.102Z,96724.40
2018-02-17T05:23:01.318Z,96722.95
2018-02-17T05:28:43.030Z,96706.44
2018-02-17T05:31:14.450Z,96701.54
2018-02-17T05:33:47.485Z,96704.08
2018-02-17T05:39:17.015Z,96695.53
2018-02-17T05:41:50.110Z,96687.06
2018-02-17T05:47:29.016Z,96673.66
2018-02-17T05:49:56.695Z,96664.55
2018-02-17T05:52:25.775Z,96664.30
2018-02-17T05:54:53.399Z,96662.98
2018-02-17T05:57:22.847Z,96663.09
2018-02-17T05:59:50.540Z,96667.06
2018-02-17T06:02:18.131Z,96669.41
2018-02-17T06:04:45.768Z,96675.53
2018-02-17T06:07:13.529Z,96678.87
2018-02-17T06:09:41.123Z,96670.27
2018-02-17T06:12:08.850Z,96672.57
2018-02-17T06:14:36.748Z,96659.14
2018-02-17T06:17:04.477Z,96656.38
2018-02-17T06:19:32.217Z,96656.91
2018-02-17T06:21:59.808Z,96649.63
2018-02-17T06:24:27.400Z,96653.31
2018-02-17T06:26:55.006Z,96657.30
2018-02-17T06:29:22.569Z,96653.78
2018-02-17T06:31:50.141Z,96653.72
2018-02-17T06:34:17.761Z,96648.42
2018-02-17T06:36:45.345Z,96654.33
2018-02-17T06:39:13.173Z,96660.45
2018-02-17T06:41:40.845Z,96656.61
2018-02-17T06:44:08.422Z,96664.38
2018-02-17T06:46:38.696Z,96660.67
2018-02-17T06:49:06.709Z,96651.09
2018-02-17T06:51:34.370Z,96646.55
2018-02-17T06:54:02.113Z,96646.28
2018-02-17T06:56:29.706Z,96639.83
2018-02-17T06:58:57.289Z,96626.11
2018-02-17T07:01:24.903Z,96622.77
2018-02-17T07:03:57.286Z,96631.89
2018-02-17T07:06:24.913Z,96632.27
2018-02-17T07:08:53.725Z,96631.02
2018-02-17T07:11:21.334Z,96630.64
2018-02-17T07:13:49.352Z,96628.08
2018-02-17T07:16:16.954Z,96622.47
2018-02-17T07:18:44.545Z,96614.88
2018-02-17T07:21:12.157Z,96610.94
2018-02-17T07:23:40.586Z,96600.51
2018-02-17T07:26:08.299Z,96595.75
2018-02-17T07:28:35.910Z,96598.75
2018-02-17T07:31:03.506Z,96603.70
2018-02-17T07:33:32.728Z,96601.27
2018-02-17T07:36:00.442Z,96603.56
2018-02-17T07:38:28.053Z,96601.31
2018-02-17T07:40:55.766Z,96588.99
2018-02-17T07:43:23.414Z,96576.83
2018-02-17T07:45:52.316Z,96555.46
2018-02-17T07:48:19.914Z,96542.84
2018-02-17T07:50:48.383Z,96552.67
2018-02-17T07:53:15.957Z,96560.04
2018-02-17T07:55:43.821Z,96571.63
2018-02-17T07:58:11.800Z,96575.69
2018-02-17T08:00:39.433Z,96572.74
2018-02-17T08:03:07.333Z,96574.22
2018-02-17T08:05:35.373Z,96579.30
2018-02-17T08:08:03.025Z,96581.45
2018-02-17T08:10:31.008Z,96586.63
2018-02-17T08:12:58.649Z,96594.16
2018-02-17T08:15:26.288Z,96582.16
2018-02-17T08:17:53.951Z,96579.73
2018-02-17T08:20:21.597Z,96559.62
2018-02-17T08:22:49.174Z,96555.21
2018-02-17T08:25:16.811Z,96547.00
2018-02-17T08:27:44.444Z,96537.14
2018-02-17T08:30:12.278Z,96535.75
2018-02-17T08:32:39.932Z,96528.72
2018-02-17T08:35:07.903Z,96502.59
2018-02-17T08:37:36.010Z,96497.31
2018-02-17T08:40:03.688Z,96488.13
2018-02-17T08:42:31.325Z,96494.04
2018-02-17T08:44:58.923Z,96497.23
2018-02-17T08:47:27.497Z,96485.05
2018-02-17T08:49:55.141Z,96482.20
2018-02-17T08:52:23.107Z,96479.31
2018-02-17T08:54:50.694Z,96488.16
2018-02-17T08:57:18.357Z,96496.79
2018-02-17T08:59:46.006Z,96490.75
2018-02-17T09:02:13.627Z,96488.13
2018-02-17T09:04:41.261Z,96460.95
2018-02-17T09:07:10.879Z,96441.99
2018-02-17T09:09:38.628Z,96438.92
2018-02-17T09:12:06.369Z,96437.12
2018-02-17T09:14:34.013Z,96450.27
2018-02-17T09:17:01.655Z,96449.98
2018-02-17T09:19:29.256Z,96446.62
2018-02-17T09:21:56.913Z,96437.48
2018-02-17T09:24:24.517Z,96444.75
2018-02-17T09:26:52.141Z,96452.65
2018-02-17T09:29:19.728Z,96451.63
2018-02-17T09:31:47.295Z,96454.16
2018-02-17T09:34:14.911Z,96448.73
2018-02-17T09:36:42.588Z,96432.48
2018-02-17T09:39:11.070Z,96431.16
2018-02-17T09:41:38.891Z,96423.42
2018-02-17T09:44:06.507Z,96413.55
2018-02-17T09:46:34.125Z,96410.33
2018-02-17T09:49:01.744Z,96400.49
2018-02-17T09:51:29.984Z,96397.39
2018-02-17T09:53:57.754Z,96389.66
2018-02-17T09:56:25.399Z,96383.40
2018-02-17T09:58:53.053Z,96365.37
2018-02-17T10:01:20.707Z,96351.66
2018-02-17T10:03:48.279Z,96340.59
2018-02-17T10:06:16.054Z,96337.06
2018-02-17T10:08:43.628Z,96333.34
2018-02-17T10:11:11.830Z,96344.30
2018-02-17T10:13:39.502Z,96349.01
2018-02-17T10:16:07.155Z,96339.62
2018-02-17T10:18:34.746Z,96336.69
2018-02-17T10:21:02.557Z,96352.17
2018-02-17T10:23:30.328Z,96350.39
2018-02-17T10:25:58.143Z,96356.80
2018-02-17T10:28:25.794Z,96355.31
2018-02-17T10:30:53.389Z,96355.95
2018-02-17T10:33:21.435Z,96343.34
2018-02-17T10:35:49.114Z,96339.58
2018-02-17T10:38:16.789Z,96341.87
2018-02-17T10:40:44.378Z,96339.98
2018-02-17T10:43:12.251Z,96343.60
2018-02-17T10:45:39.889Z,96336.23
2018-02-17T10:48:07.505Z,96345.91
2018-02-17T10:50:35.118Z,96334.00
2018-02-17T10:53:02.751Z,96333.39
2018-02-17T10:55:36.124Z,96337.28
2018-02-17T10:58:03.762Z,96352.11
2018-02-17T11:00:32.030Z,96353.16
2018-02-17T11:03:04.879Z,96346.80
2018-02-17T11:05:37.335Z,96341.97
2018-02-17T11:08:10.339Z,96340.58
2018-02-17T11:10:49.079Z,96332.66
2018-02-17T11:13:23.142Z,96318.27
2018-02-17T11:15:51.265Z,96311.81
2018-02-17T11:18:20.516Z,96307.93
2018-02-17T11:20:48.599Z,96299.69
2018-02-17T11:23:17.268Z,96273.30
2018-02-17T11:25:44.856Z,96264.77
2018-02-17T11:28:16.284Z,96260.74
2018-02-17T11:30:43.883Z,96262.57
2018-02-17T11:33:13.052Z,96244.74
2018-02-17T11:35:42.032Z,96232.31
2018-02-17T11:38:11.581Z,96236.73
2018-02-17T11:40:39.694Z,96222.10
2018-02-17T11:43:09.426Z,96217.30
2018-02-17T11:45:37.150Z,96211.75
2018-02-17T11:48:06.031Z,96202.95
2018-02-17T11:50:33.708Z,96200.90
2018-02-17T11:53:03.409Z,96206.37
2018-02-17T11:55:31.132Z,96204.30
2018-02-17T11:57:59.080Z,96215.73
2018-02-17T12:00:26.868Z,96221.42
2018-02-17T12:02:54.515Z,96216.52
2018-02-17T12:05:30.120Z,96217.12
2018-02-17T12:08:02.217Z,96213.13
2018-02-17T12:10:36.133Z,96220.83
2018-02-17T12:13:09.392Z,96225.14
2018-02-17T12:15:44.627Z,96241.73
2018-02-17T12:18:12.288Z,96246.51
2018-02-17T12:20:39.852Z,96240.13
2018-02-17T12:23:07.811Z,96244.47
2018-02-17T12:25:35.489Z,96246.02
2018-02-17T12:28:03.913Z,96233.77
2018-02-17T12:30:31.845Z,96227.14
2018-02-17T12:32:59.469Z,96224.34
2018-02-17T12:35:27.409Z,96211.73
2018-02-17T12:37:55.065Z,96208.21
2018-02-17T12:40:22.973Z,96194.70
2018-02-17T12:42:50.669Z,96207.82
2018-02-17T12:45:18.283Z,96210.47
2018-02-17T12:47:45.876Z,96202.05
2018-02-17T12:50:13.639Z,96188.45
2018-02-17T12:52:41.232Z,96190.02
2018-02-17T12:55:09.614Z,96181.09
2018-02-17T12:57:37.249Z,96175.42
2018-02-17T13:00:04.927Z,96155.00
2018-02-17T13:02:32.528Z,96151.59
2018-02-17T13:05:00.442Z,96148.50
2018-02-17T13:07:35.208Z,96141.58
2018-02-17T13:10:07.807Z,96149.38
2018-02-17T13:12:41.080Z,96146.45
2018-02-17T13:15:27.115Z,96146.13
2018-02-17T13:17:54.755Z,96135.19
2018-02-17T13:20:23.343Z,96138.63
2018-02-17T13:22:50.920Z,96126.34
2018-02-17T13:25:18.587Z,96123.55
2018-02-17T13:27:46.184Z,96126.97
2018-02-17T13:30:13.784Z,96146.03
2018-02-17T13:32:41.550Z,96147.13
2018-02-17T13:35:09.578Z,96136.30
2018-02-17T13:37:37.235Z,96141.66
2018-02-17T13:40:04.874Z,96136.77
2018-02-17T13:42:33.558Z,96123.03
2018-02-17T13:45:02.144Z,96119.38
2018-02-17T13:47:29.759Z,96120.98
2018-02-17T13:49:57.383Z,96124.56
2018-02-17T13:52:25.060Z,96125.55
2018-02-17T13:54:53.189Z,96119.20
2018-02-17T13:57:21.001Z,96128.86
2018-02-17T13:59:48.645Z,96128.94
2018-02-17T14:02:16.266Z,96116.95
2018-02-17T14:04:43.876Z,96109.05
2018-02-17T14:07:12.853Z,96107.20
2018-02-17T14:09:40.775Z,96102.17
2018-02-17T14:12:08.354Z,96111.70
2018-02-17T14:14:36.054Z,96105.20
2018-02-17T14:17:08.098Z,96098.37
2018-02-17T14:19:38.456Z,96092.42
2018-02-17T14:22:06.025Z,96091.45
2018-02-17T14:24:34.503Z,96088.64
2018-02-17T14:27:02.182Z,96087.62
2018-02-17T14:29:29.842Z,96086.75
2018-02-17T14:31:57.447Z,96098.90
2018-02-17T14:34:25.071Z,96101.14
2018-02-17T14:36:54.438Z,96097.41
2018-02-17T14:39:24.471Z,96112.61
2018-02-17T14:41:52.137Z,96107.44
2018-02-17T14:44:19.986Z,96112.26
2018-02-17T14:46:54.413Z,96115.81
2018-02-17T14:49:23.469Z,96104.42
2018-02-17T14:51:51.087Z,96115.48
2018-02-17T14:54:19.207Z,96111.55
2018-02-17T14:56:47.111Z,96117.27
2018-02-17T14:59:14.990Z,96109.00
2018-02-17T15:01:43.512Z,96113.56
2018-02-17T15:04:11.649Z,96123.77
2018-02-17T15:06:39.242Z,96124.20
2018-02-17T15:09:06.953Z,96135.19
2018-02-17T15:11:35.633Z,96122.59
2018-02-17T15:14:03.648Z,96123.52
2018-02-17T15:16:39.107Z,96123.23
2018-02-17T15:19:13.074Z,96120.06
2018-02-17T15:21:47.250Z,96131.05
2018-02-17T15:24:18.377Z,96131.66
2018-02-17T15:26:52.559Z,96130.15
2018-02-17T15:29:23.847Z,96128.48
2018-02-17T15:31:51.485Z,96130.31
2018-02-17T15:34:19.128Z,96128.88
2018-02-17T15:36:46.714Z,96134.20
2018-02-17T15:39:14.647Z,96129.12
2018-02-17T15:41:46.702Z,96132.16
2018-02-17T15:44:21.690Z,96120.88
2018-02-17T15:46:49.293Z,96116.51
2018-02-17T15:49:17.307Z,96129.52
2018-02-17T15:51:45.368Z,96132.10
2018-02-17T15:54:13.539Z,96133.25
2018-02-17T15:56:46.150Z,96135.90
2018-02-17T15:59:14.465Z,96134.52
2018-02-17T16:01:42.107Z,96133.84
2018-02-17T16:04:09.681Z,96135.84
2018-02-17T16:06:37.280Z,96128.07
2018-02-17T16:09:05.370Z,96133.81
2018-02-17T16:11:33.080Z,96137.78
2018-02-17T16:14:03.778Z,96141.23
2018-02-17T16:16:31.324Z,96146.47
2018-02-17T16:18:58.920Z,96139.65
2018-02-17T16:21:26.502Z,96135.56
2018-02-17T16:23:58.498Z,96135.10
2018-02-17T16:26:31.280Z,96125.76
2018-02-17T16:29:04.813Z,96119.75
2018-02-17T16:31:39.628Z,96130.78
2018-02-17T16:34:08.697Z,96131.23
2018-02-17T16:36:43.157Z,96143.78
2018-02-17T16:39:17.401Z,96153.58
2018-02-17T16:41:51.469Z,96162.81
2018-02-17T16:44:26.685Z,96164.42
2018-02-17T16:46:54.276Z,96170.36
2018-02-17T16:49:21.926Z,96164.94
2018-02-17T16:51:49.559Z,96163.66
2018-02-17T16:54:17.179Z,96153.16
2018-02-17T16:56:44.787Z,96155.94
2018-02-17T16:59:12.416Z,96146.91
2018-02-17T17:01:39.988Z,96158.34
2018-02-17T17:04:07.618Z,96158.00
2018-02-17T17:06:35.210Z,96156.35
2018-02-17T17:09:04.995Z,96156.35
2018-02-17T17:11:32.617Z,96143.77
2018-02-17T17:14:00.231Z,96129.00
2018-02-17T17:16:28.130Z,96137.73
2018-02-17T17:18:55.693Z,96138.78
2018-02-17T17:21:23.655Z,96154.81
2018-02-17T17:23:51.309Z,96162.00
2018-02-17T17:26:18.939Z,96168.09
2018-02-17T17:28:46.580Z,96170.42
2018-02-17T17:31:14.161Z,96177.98
2018-02-17T17:33:41.741Z,96177.00
2018-02-17T17:36:09.477Z,96169.22
2018-02-17T17:38:37.045Z,96167.06
2018-02-17T17:41:04.858Z,96165.73
2018-02-17T17:43:32.466Z,96166.16
2018-02-17T17:46:00.414Z,96163.70
2018-02-17T17:48:27.999Z,96155.60
2018-02-17T17:50:55.577Z,96162.91
2018-02-17T17:53:23.546Z,96168.79
2018-02-17T17:55:51.112Z,96167.39
2018-02-17T17:58:21.091Z,96163.26
2018-02-17T18:00:48.654Z,96163.47
2018-02-17T18:03:16.262Z,96164.82
2018-02-17T18:05:43.909Z,96163.91
2018-02-17T18:08:11.518Z,96158.77
2018-02-17T18:10:39.129Z,96160.84
2018-02-17T18:13:06.862Z,96160.01
2018-02-17T18:15:34.603Z,96160.15
2018-02-17T18:18:02.220Z,96165.73
2018-02-17T18:20:30.513Z,96165.38
2018-02-17T18:22:58.113Z,96168.63
2018-02-17T18:25:26.098Z,96166.91
2018-02-17T18:27:54.033Z,96172.91
2018-02-17T18:30:21.719Z,96174.15
2018-02-17T18:32:49.293Z,96174.56
2018-02-17T18:35:17.118Z,96173.50
2018-02-17T18:37:44.723Z,96163.69
2018-02-17T18:40:12.285Z,96161.80
2018-02-17T18:42:39.920Z,96161.48
2018-02-17T18:45:07.692Z,96169.88
2018-02-17T18:47:36.368Z,96160.92
2018-02-17T18:50:03.941Z,96159.58
2018-02-17T18:52:31.489Z,96170.39
2018-02-17T18:54:59.066Z,96176.33
2018-02-17T18:57:26.694Z,96170.46
2018-02-17T18:59:59.500Z,96168.72
2018-02-17T19:02:27.268Z,96172.63
2018-02-17T19:05:00.393Z,96179.09
2018-02-17T19:07:36.485Z,96186.65
2018-02-17T19:10:14.027Z,96190.84
2018-02-17T19:12:49.168Z,96182.56
2018-02-17T19:15:22.963Z,96185.98
2018-02-17T19:17:57.068Z,96193.24
2018-02-17T19:20:29.766Z,96188.80
2018-02-17T19:23:00.798Z,96186.36
2018-02-17T19:25:33.451Z,96185.98
2018-02-17T19:28:06.112Z,96185.75
2018-02-17T19:30:38.475Z,96185.15
2018-02-17T19:33:13.568Z,96184.23
2018-02-17T19:35:42.380Z,96179.98
2018-02-17T19:38:10.053Z,96184.48
2018-02-17T19:40:37.675Z,96189.69
2018-02-17T19:43:05.430Z,96185.56
2018-02-17T19:45:35.726Z,96189.04
2018-02-17T19:48:04.352Z,96190.91
2018-02-17T19:50:32.699Z,96188.80
2018-02-17T19:53:00.982Z,96188.75
2018-02-17T19:55:29.733Z,96194.67
2018-02-17T19:57:59.846Z,96187.95
2018-02-17T20:00:27.529Z,96193.04
2018-02-17T20:02:55.100Z,96187.84
2018-02-17T20:05:23.022Z,96194.56
2018-02-17T20:07:52.653Z,96206.55
2018-02-17T20:10:20.816Z,96202.70
2018-02-17T20:12:50.507Z,96216.91
2018-02-17T20:15:19.569Z,96215.48
2018-02-17T20:17:47.220Z,96217.02
2018-02-17T20:20:19.511Z,96214.81
2018-02-17T20:22:47.072Z,96205.47
2018-02-17T20:25:15.562Z,96199.34
2018-02-17T20:27:43.624Z,96191.55
2018-02-17T20:30:11.459Z,96212.83
2018-02-17T20:32:39.116Z,96220.87
2018-02-17T20:35:06.891Z,96222.30
2018-02-17T20:37:34.505Z,96236.65
2018-02-17T20:40:02.489Z,96238.50
2018-02-17T20:42:30.085Z,96240.19
2018-02-17T20:44:57.688Z,96237.44
2018-02-17T20:47:25.524Z,96239.47
2018-02-17T20:49:53.307Z,96249.77
2018-02-17T20:52:20.883Z,96244.57
2018-02-17T20:54:48.478Z,96243.61
2018-02-17T20:57:16.352Z,96241.91
2018-02-17T20:59:43.957Z,96250.16
2018-02-17T21:02:11.905Z,96258.16
2018-02-17T21:04:39.868Z,96261.53
2018-02-17T21:07:07.846Z,96267.95
2018-02-17T21:09:36.185Z,96268.84
2018-02-17T21:12:03.850Z,96273.40
2018-02-17T21:14:31.449Z,96277.59
2018-02-17T21:16:59.045Z,96277.01
2018-02-17T21:19:26.895Z,96284.14
2018-02-17T21:21:54.476Z,96287.50
2018-02-17T21:24:22.599Z,96289.31
2018-02-17T21:26:50.247Z,96294.22
2018-02-17T21:29:17.929Z,96295.55
2018-02-17T21:31:45.488Z,96299.14
2018-02-17T21:34:13.494Z,96301.67
2018-02-17T21:36:41.083Z,96303.70
2018-02-17T21:39:08.961Z,96305.75
2018-02-17T21:41:36.592Z,96303.09
2018-02-17T21:44:04.218Z,96310.70
2018-02-17T21:46:31.848Z,96308.62
2018-02-17T21:48:59.497Z,96311.37
2018-02-17T21:51:31.372Z,96308.97
2018-02-17T21:53:59.000Z,96317.30
2018-02-17T21:56:26.641Z,96327.62
2018-02-17T21:58:54.291Z,96328.38
2018-02-17T22:01:21.921Z,96321.14
2018-02-17T22:03:49.562Z,96331.65
2018-02-17T22:06:17.185Z,96334.46
2018-02-17T22:08:44.759Z,96343.39
2018-02-17T22:11:12.669Z,96358.80
2018-02-17T22:13:40.288Z,96364.80
2018-02-17T22:16:07.928Z,96369.80
2018-02-17T22:18:35.558Z,96378.12
2018-02-17T22:21:03.243Z,96378.25
2018-02-17T22:23:31.249Z,96383.88
2018-02-17T22:25:58.828Z,96375.42
2018-02-17T22:28:26.457Z,96374.79
2018-02-17T22:30:55.408Z,96371.30
2018-02-17T22:33:23.149Z,96374.91
2018-02-17T22:35:50.964Z,96388.72
2018-02-17T22:38:18.537Z,96390.86
2018-02-17T22:40:46.123Z,96391.36
2018-02-17T22:43:13.972Z,96384.62
2018-02-17T22:45:41.617Z,96387.31
2018-02-17T22:48:09.244Z,96393.15
2018-02-17T22:50:37.287Z,96402.15
2018-02-17T22:53:04.948Z,96403.53
2018-02-17T22:55:32.685Z,96405.11
2018-02-17T22:58:00.285Z,96408.03
2018-02-17T23:00:31.621Z,96405.96
2018-02-17T23:02:59.257Z,96411.70
2018-02-17T23:05:27.374Z,96417.48
2018-02-17T23:07:55.008Z,96412.54
2018-02-17T23:10:22.682Z,96428.77
2018-02-17T23:12:50.357Z,96422.09
2018-02-17T23:15:18.858Z,96426.28
2018-02-17T23:17:46.552Z,96425.28
2018-02-17T23:20:15.892Z,96429.91
2018-02-17T23:22:43.689Z,96428.39
2018-02-17T23:25:11.715Z,96429.70
2018-02-17T23:27:39.561Z,96436.36
2018-02-17T23:30:07.117Z,96433.48
2018-02-17T23:32:35.920Z,96442.24
2018-02-17T23:35:06.155Z,96441.83
2018-02-17T23:37:33.800Z,96443.64
2018-02-17T23:40:01.410Z,96439.77
2018-02-17T23:42:30.545Z,96441.08
2018-02-17T23:44:59.854Z,96447.59
2018-02-17T23:47:27.519Z,96452.42
2018-02-17T23:49:55.122Z,96460.83
2018-02-17T23:52:22.687Z,96473.11
2018-02-17T23:54:50.461Z,96468.96
2018-02-17T23:57:18.127Z,96466.49
2018-02-17T23:59:45.706Z,96477.35
